sensor_id;sensor_type;location;lat;lon;timestamp;temperature;humidity
57088;DHT22;42965;52.846;6.614;2023-07-29T00:01:40;17.40;99.90
57088;DHT22;42965;52.846;6.614;2023-07-29T00:04:08;17.40;99.90
57088;DHT22;42965;52.846;6.614;2023-07-29T00:06:35;17.30;99.90
57088;DHT22;42965;52.846;6.614;2023-07-29T00:09:02;17.30;99.90
57088;DHT22;42965;52.846;6.614;2023-07-29T00:11:28;17.30;99.90
57088;DHT22;42965;52.846;6.614;2023-07-29T00:13:57;17.30;99.90
57088;DHT22;42965;52.846;6.614;2023-07-29T00:16:23;17.30;99.90
57088;DHT22;42965;52.846;6.614;2023-07-29T00:18:49;17.20;99.90
57088;DHT22;42965;52.846;6.614;2023-07-29T00:21:15;17.20;99.90
57088;DHT22;42965;52.846;6.614;2023-07-29T00:23:42;17.20;99.90
57088;DHT22;42965;52.846;6.614;2023-07-29T00:26:08;17.20;99.90
57088;DHT22;42965;52.846;6.614;2023-07-29T00:28:34;17.20;99.90
57088;DHT22;42965;52.846;6.614;2023-07-29T00:31:02;17.10;99.90
57088;DHT22;42965;52.846;6.614;2023-07-29T00:33:28;17.10;99.90
57088;DHT22;42965;52.846;6.614;2023-07-29T00:35:54;17.10;99.90
57088;DHT22;42965;52.846;6.614;2023-07-29T00:38:20;17.10;99.90
57088;DHT22;42965;52.846;6.614;2023-07-29T00:40:47;17.10;99.90
57088;DHT22;42965;52.846;6.614;2023-07-29T00:43:14;17.10;99.90
57088;DHT22;42965;52.846;6.614;2023-07-29T00:45:43;17.00;99.90
57088;DHT22;42965;52.846;6.614;2023-07-29T00:48:10;17.00;99.90
57088;DHT22;42965;52.846;6.614;2023-07-29T00:50:37;17.00;99.90
57088;DHT22;42965;52.846;6.614;2023-07-29T00:53:03;17.00;99.90
57088;DHT22;42965;52.846;6.614;2023-07-29T00:55:29;17.00;99.90
57088;DHT22;42965;52.846;6.614;2023-07-29T00:57:56;16.90;99.90
57088;DHT22;42965;52.846;6.614;2023-07-29T01:00:23;16.90;99.90
57088;DHT22;42965;52.846;6.614;2023-07-29T01:02:50;16.90;99.90
57088;DHT22;42965;52.846;6.614;2023-07-29T01:05:18;16.90;99.90
57088;DHT22;42965;52.846;6.614;2023-07-29T01:07:54;16.90;99.90
57088;DHT22;42965;52.846;6.614;2023-07-29T01:13:47;16.80;99.90
57088;DHT22;42965;52.846;6.614;2023-07-29T01:16:29;16.80;99.90
57088;DHT22;42965;52.846;6.614;2023-07-29T01:18:58;16.80;99.90
57088;DHT22;42965;52.846;6.614;2023-07-29T01:21:27;16.80;99.90
57088;DHT22;42965;52.846;6.614;2023-07-29T01:23:58;16.70;99.90
57088;DHT22;42965;52.846;6.614;2023-07-29T01:26:25;16.70;99.90
57088;DHT22;42965;52.846;6.614;2023-07-29T01:28:52;16.70;99.90
57088;DHT22;42965;52.846;6.614;2023-07-29T01:31:44;16.70;99.90
57088;DHT22;42965;52.846;6.614;2023-07-29T01:34:32;16.70;99.90
57088;DHT22;42965;52.846;6.614;2023-07-29T01:37:02;16.70;99.90
57088;DHT22;42965;52.846;6.614;2023-07-29T01:39:33;16.60;99.90
57088;DHT22;42965;52.846;6.614;2023-07-29T01:42:02;16.60;99.90
57088;DHT22;42965;52.846;6.614;2023-07-29T01:44:29;16.60;99.90
57088;DHT22;42965;52.846;6.614;2023-07-29T01:46:59;16.60;99.90
57088;DHT22;42965;52.846;6.614;2023-07-29T01:49:27;16.60;99.90
57088;DHT22;42965;52.846;6.614;2023-07-29T01:51:53;16.60;99.90
57088;DHT22;42965;52.846;6.614;2023-07-29T01:54:19;16.60;99.90
57088;DHT22;42965;52.846;6.614;2023-07-29T01:56:46;16.60;99.90
57088;DHT22;42965;52.846;6.614;2023-07-29T01:59:12;16.60;99.90
57088;DHT22;42965;52.846;6.614;2023-07-29T02:01:40;16.60;99.90
57088;DHT22;42965;52.846;6.614;2023-07-29T02:04:06;16.60;99.90
57088;DHT22;42965;52.846;6.614;2023-07-29T02:06:32;16.60;99.90
57088;DHT22;42965;52.846;6.614;2023-07-29T02:08:58;16.60;99.90
57088;DHT22;42965;52.846;6.614;2023-07-29T02:11:27;16.60;99.90
57088;DHT22;42965;52.846;6.614;2023-07-29T02:13:55;16.60;99.90
57088;DHT22;42965;52.846;6.614;2023-07-29T02:16:22;16.70;99.90
57088;DHT22;42965;52.846;6.614;2023-07-29T02:18:51;16.70;99.90
57088;DHT22;42965;52.846;6.614;2023-07-29T02:21:18;16.70;99.90
57088;DHT22;42965;52.846;6.614;2023-07-29T02:23:45;16.70;99.90
57088;DHT22;42965;52.846;6.614;2023-07-29T02:26:11;16.80;99.90
57088;DHT22;42965;52.846;6.614;2023-07-29T02:28:37;16.80;99.90
57088;DHT22;42965;52.846;6.614;2023-07-29T02:31:20;16.80;99.90
57088;DHT22;42965;52.846;6.614;2023-07-29T02:33:46;16.80;99.90
57088;DHT22;42965;52.846;6.614;2023-07-29T02:36:13;16.70;99.90
57088;DHT22;42965;52.846;6.614;2023-07-29T02:38:40;16.80;99.90
57088;DHT22;42965;52.846;6.614;2023-07-29T02:41:08;16.80;99.90
57088;DHT22;42965;52.846;6.614;2023-07-29T02:43:36;16.80;99.90
57088;DHT22;42965;52.846;6.614;2023-07-29T02:46:02;16.80;99.90
57088;DHT22;42965;52.846;6.614;2023-07-29T02:48:31;16.80;99.90
57088;DHT22;42965;52.846;6.614;2023-07-29T02:50:59;16.80;99.90
57088;DHT22;42965;52.846;6.614;2023-07-29T02:53:25;16.90;99.90
57088;DHT22;42965;52.846;6.614;2023-07-29T02:55:51;16.90;99.90
57088;DHT22;42965;52.846;6.614;2023-07-29T02:58:20;16.90;99.90
57088;DHT22;42965;52.846;6.614;2023-07-29T03:00:46;16.90;99.90
57088;DHT22;42965;52.846;6.614;2023-07-29T03:03:14;16.90;99.90
57088;DHT22;42965;52.846;6.614;2023-07-29T03:05:40;16.80;99.90
57088;DHT22;42965;52.846;6.614;2023-07-29T03:08:06;16.80;99.90
57088;DHT22;42965;52.846;6.614;2023-07-29T03:10:35;16.80;99.90
57088;DHT22;42965;52.846;6.614;2023-07-29T03:13:02;16.80;99.90
57088;DHT22;42965;52.846;6.614;2023-07-29T03:15:32;16.80;99.90
57088;DHT22;42965;52.846;6.614;2023-07-29T03:18:00;16.70;99.90
57088;DHT22;42965;52.846;6.614;2023-07-29T03:20:26;16.70;99.90
57088;DHT22;42965;52.846;6.614;2023-07-29T03:22:52;16.70;99.90
57088;DHT22;42965;52.846;6.614;2023-07-29T03:25:19;16.70;99.90
57088;DHT22;42965;52.846;6.614;2023-07-29T03:27:45;16.70;99.90
57088;DHT22;42965;52.846;6.614;2023-07-29T03:30:15;16.60;99.90
57088;DHT22;42965;52.846;6.614;2023-07-29T03:32:43;16.60;99.90
57088;DHT22;42965;52.846;6.614;2023-07-29T03:35:11;16.50;99.90
57088;DHT22;42965;52.846;6.614;2023-07-29T03:37:38;16.50;99.90
57088;DHT22;42965;52.846;6.614;2023-07-29T03:40:05;16.50;99.90
57088;DHT22;42965;52.846;6.614;2023-07-29T03:42:31;16.40;99.90
57088;DHT22;42965;52.846;6.614;2023-07-29T03:44:58;16.30;99.90
57088;DHT22;42965;52.846;6.614;2023-07-29T03:47:24;16.30;99.90
57088;DHT22;42965;52.846;6.614;2023-07-29T03:49:52;16.30;99.90
57088;DHT22;42965;52.846;6.614;2023-07-29T03:52:21;16.20;99.90
57088;DHT22;42965;52.846;6.614;2023-07-29T03:54:48;16.20;99.90
57088;DHT22;42965;52.846;6.614;2023-07-29T03:57:14;16.20;99.90
57088;DHT22;42965;52.846;6.614;2023-07-29T03:59:40;16.20;99.90
57088;DHT22;42965;52.846;6.614;2023-07-29T04:02:07;16.10;99.90
57088;DHT22;42965;52.846;6.614;2023-07-29T04:04:33;16.10;99.90
57088;DHT22;42965;52.846;6.614;2023-07-29T04:07:02;16.10;99.90
57088;DHT22;42965;52.846;6.614;2023-07-29T04:09:28;16.10;99.90
57088;DHT22;42965;52.846;6.614;2023-07-29T04:11:55;16.10;99.90
57088;DHT22;42965;52.846;6.614;2023-07-29T04:14:21;16.10;99.90
57088;DHT22;42965;52.846;6.614;2023-07-29T04:16:48;16.10;99.90
57088;DHT22;42965;52.846;6.614;2023-07-29T04:19:15;16.10;99.90
57088;DHT22;42965;52.846;6.614;2023-07-29T04:21:41;16.10;99.90
57088;DHT22;42965;52.846;6.614;2023-07-29T04:24:07;16.20;99.90
57088;DHT22;42965;52.846;6.614;2023-07-29T04:26:33;16.20;99.90
57088;DHT22;42965;52.846;6.614;2023-07-29T04:29:00;16.30;99.90
57088;DHT22;42965;52.846;6.614;2023-07-29T04:31:26;16.30;99.90
57088;DHT22;42965;52.846;6.614;2023-07-29T04:33:52;16.30;99.90
57088;DHT22;42965;52.846;6.614;2023-07-29T04:36:19;16.30;99.90
57088;DHT22;42965;52.846;6.614;2023-07-29T04:38:45;16.30;99.90
57088;DHT22;42965;52.846;6.614;2023-07-29T04:41:11;16.40;99.90
57088;DHT22;42965;52.846;6.614;2023-07-29T04:43:38;16.40;99.90
57088;DHT22;42965;52.846;6.614;2023-07-29T04:46:07;16.40;99.90
57088;DHT22;42965;52.846;6.614;2023-07-29T04:48:34;16.40;99.90
57088;DHT22;42965;52.846;6.614;2023-07-29T04:51:01;16.40;99.90
57088;DHT22;42965;52.846;6.614;2023-07-29T04:53:28;16.40;99.90
57088;DHT22;42965;52.846;6.614;2023-07-29T04:55:54;16.40;99.90
57088;DHT22;42965;52.846;6.614;2023-07-29T04:58:20;16.40;99.90
57088;DHT22;42965;52.846;6.614;2023-07-29T05:00:47;16.50;99.90
57088;DHT22;42965;52.846;6.614;2023-07-29T05:03:14;16.50;99.90
57088;DHT22;42965;52.846;6.614;2023-07-29T05:05:40;16.60;99.90
57088;DHT22;42965;52.846;6.614;2023-07-29T05:08:06;16.60;99.90
57088;DHT22;42965;52.846;6.614;2023-07-29T05:10:34;16.60;99.90
57088;DHT22;42965;52.846;6.614;2023-07-29T05:13:00;16.50;99.90
57088;DHT22;42965;52.846;6.614;2023-07-29T05:15:27;16.50;99.90
57088;DHT22;42965;52.846;6.614;2023-07-29T05:17:53;16.60;99.90
57088;DHT22;42965;52.846;6.614;2023-07-29T05:20:19;16.60;99.90
57088;DHT22;42965;52.846;6.614;2023-07-29T05:22:46;16.60;99.90
57088;DHT22;42965;52.846;6.614;2023-07-29T05:25:12;16.60;99.90
57088;DHT22;42965;52.846;6.614;2023-07-29T05:27:38;16.70;99.90
57088;DHT22;42965;52.846;6.614;2023-07-29T05:30:05;16.70;99.90
57088;DHT22;42965;52.846;6.614;2023-07-29T05:32:32;16.70;99.90
57088;DHT22;42965;52.846;6.614;2023-07-29T05:34:59;16.80;99.90
57088;DHT22;42965;52.846;6.614;2023-07-29T05:37:27;16.90;99.90
57088;DHT22;42965;52.846;6.614;2023-07-29T05:39:54;16.90;99.90
57088;DHT22;42965;52.846;6.614;2023-07-29T05:42:20;16.90;99.90
57088;DHT22;42965;52.846;6.614;2023-07-29T05:44:46;17.00;99.90
57088;DHT22;42965;52.846;6.614;2023-07-29T05:47:13;17.00;99.90
57088;DHT22;42965;52.846;6.614;2023-07-29T05:49:39;17.00;99.90
57088;DHT22;42965;52.846;6.614;2023-07-29T05:52:05;17.10;99.90
57088;DHT22;42965;52.846;6.614;2023-07-29T05:54:33;17.10;99.90
57088;DHT22;42965;52.846;6.614;2023-07-29T05:56:59;17.10;99.90
57088;DHT22;42965;52.846;6.614;2023-07-29T05:59:26;17.20;99.90
57088;DHT22;42965;52.846;6.614;2023-07-29T06:01:56;17.30;99.90
57088;DHT22;42965;52.846;6.614;2023-07-29T06:04:22;17.30;99.90
57088;DHT22;42965;52.846;6.614;2023-07-29T06:06:49;17.30;99.90
57088;DHT22;42965;52.846;6.614;2023-07-29T06:09:15;17.30;99.90
57088;DHT22;42965;52.846;6.614;2023-07-29T06:11:41;17.40;99.90
57088;DHT22;42965;52.846;6.614;2023-07-29T06:14:07;17.40;99.90
57088;DHT22;42965;52.846;6.614;2023-07-29T06:16:33;17.40;99.90
57088;DHT22;42965;52.846;6.614;2023-07-29T06:19:00;17.50;99.90
57088;DHT22;42965;52.846;6.614;2023-07-29T06:21:26;17.50;99.90
57088;DHT22;42965;52.846;6.614;2023-07-29T06:23:53;17.70;99.90
57088;DHT22;42965;52.846;6.614;2023-07-29T06:26:19;17.90;99.90
57088;DHT22;42965;52.846;6.614;2023-07-29T06:28:45;18.10;99.90
57088;DHT22;42965;52.846;6.614;2023-07-29T06:31:14;18.40;99.90
57088;DHT22;42965;52.846;6.614;2023-07-29T06:33:40;18.50;99.90
57088;DHT22;42965;52.846;6.614;2023-07-29T06:36:06;18.50;99.90
57088;DHT22;42965;52.846;6.614;2023-07-29T06:38:33;18.50;99.90
57088;DHT22;42965;52.846;6.614;2023-07-29T06:40:59;18.50;99.90
57088;DHT22;42965;52.846;6.614;2023-07-29T06:43:26;18.50;99.90
57088;DHT22;42965;52.846;6.614;2023-07-29T06:45:52;18.50;99.90
57088;DHT22;42965;52.846;6.614;2023-07-29T06:48:18;18.50;99.90
57088;DHT22;42965;52.846;6.614;2023-07-29T06:50:46;18.50;99.90
57088;DHT22;42965;52.846;6.614;2023-07-29T06:53:12;18.70;99.90
57088;DHT22;42965;52.846;6.614;2023-07-29T06:55:39;19.00;99.90
57088;DHT22;42965;52.846;6.614;2023-07-29T06:58:06;19.10;99.90
57088;DHT22;42965;52.846;6.614;2023-07-29T07:00:32;19.20;99.90
57088;DHT22;42965;52.846;6.614;2023-07-29T07:02:58;19.30;99.90
57088;DHT22;42965;52.846;6.614;2023-07-29T07:05:25;19.20;99.90
57088;DHT22;42965;52.846;6.614;2023-07-29T07:07:51;19.20;99.90
57088;DHT22;42965;52.846;6.614;2023-07-29T07:10:18;19.20;99.90
57088;DHT22;42965;52.846;6.614;2023-07-29T07:12:45;19.30;99.90
57088;DHT22;42965;52.846;6.614;2023-07-29T07:15:11;19.20;99.90
57088;DHT22;42965;52.846;6.614;2023-07-29T07:17:37;19.20;99.90
57088;DHT22;42965;52.846;6.614;2023-07-29T07:20:04;19.30;99.90
57088;DHT22;42965;52.846;6.614;2023-07-29T07:22:30;19.30;99.90
57088;DHT22;42965;52.846;6.614;2023-07-29T07:24:57;19.60;99.90
57088;DHT22;42965;52.846;6.614;2023-07-29T07:27:23;19.70;99.90
57088;DHT22;42965;52.846;6.614;2023-07-29T07:29:49;19.70;99.90
57088;DHT22;42965;52.846;6.614;2023-07-29T07:32:16;19.80;99.90
57088;DHT22;42965;52.846;6.614;2023-07-29T07:34:42;20.10;99.90
57088;DHT22;42965;52.846;6.614;2023-07-29T07:37:08;20.10;99.90
57088;DHT22;42965;52.846;6.614;2023-07-29T07:39:35;20.30;99.90
57088;DHT22;42965;52.846;6.614;2023-07-29T07:42:02;20.30;99.90
57088;DHT22;42965;52.846;6.614;2023-07-29T07:44:29;20.70;99.90
57088;DHT22;42965;52.846;6.614;2023-07-29T07:46:58;21.00;99.90
57088;DHT22;42965;52.846;6.614;2023-07-29T07:49:24;21.30;99.90
57088;DHT22;42965;52.846;6.614;2023-07-29T07:51:50;21.40;99.90
57088;DHT22;42965;52.846;6.614;2023-07-29T07:54:17;21.30;99.90
57088;DHT22;42965;52.846;6.614;2023-07-29T07:56:44;20.90;99.90
57088;DHT22;42965;52.846;6.614;2023-07-29T07:59:10;21.00;99.90
57088;DHT22;42965;52.846;6.614;2023-07-29T08:01:37;20.70;99.90
57088;DHT22;42965;52.846;6.614;2023-07-29T08:04:04;20.60;99.90
57088;DHT22;42965;52.846;6.614;2023-07-29T08:06:31;20.70;99.90
57088;DHT22;42965;52.846;6.614;2023-07-29T08:08:58;20.70;99.90
57088;DHT22;42965;52.846;6.614;2023-07-29T08:11:27;20.80;99.90
57088;DHT22;42965;52.846;6.614;2023-07-29T08:13:54;21.00;99.90
57088;DHT22;42965;52.846;6.614;2023-07-29T08:16:20;21.50;99.90
57088;DHT22;42965;52.846;6.614;2023-07-29T08:18:46;21.60;99.90
57088;DHT22;42965;52.846;6.614;2023-07-29T08:21:13;21.90;99.90
57088;DHT22;42965;52.846;6.614;2023-07-29T08:23:39;21.80;99.90
57088;DHT22;42965;52.846;6.614;2023-07-29T08:26:06;21.50;99.90
57088;DHT22;42965;52.846;6.614;2023-07-29T08:28:34;21.20;99.90
57088;DHT22;42965;52.846;6.614;2023-07-29T08:31:00;21.20;99.90
57088;DHT22;42965;52.846;6.614;2023-07-29T08:33:27;21.70;99.90
57088;DHT22;42965;52.846;6.614;2023-07-29T08:35:54;22.20;99.90
57088;DHT22;42965;52.846;6.614;2023-07-29T08:38:21;22.60;99.90
57088;DHT22;42965;52.846;6.614;2023-07-29T08:40:55;23.00;99.90
57088;DHT22;42965;52.846;6.614;2023-07-29T08:43:30;23.60;99.90
57088;DHT22;42965;52.846;6.614;2023-07-29T08:45:59;23.40;99.90
57088;DHT22;42965;52.846;6.614;2023-07-29T08:48:41;23.20;99.90
57088;DHT22;42965;52.846;6.614;2023-07-29T08:51:09;23.50;99.90
57088;DHT22;42965;52.846;6.614;2023-07-29T08:53:37;23.30;99.90
57088;DHT22;42965;52.846;6.614;2023-07-29T08:56:04;23.40;99.90
57088;DHT22;42965;52.846;6.614;2023-07-29T08:58:32;23.50;99.90
57088;DHT22;42965;52.846;6.614;2023-07-29T09:01:00;23.60;99.90
57088;DHT22;42965;52.846;6.614;2023-07-29T09:03:26;23.30;99.90
57088;DHT22;42965;52.846;6.614;2023-07-29T09:05:53;23.40;99.90
57088;DHT22;42965;52.846;6.614;2023-07-29T09:08:20;23.40;99.90
57088;DHT22;42965;52.846;6.614;2023-07-29T09:10:47;23.80;99.90
57088;DHT22;42965;52.846;6.614;2023-07-29T09:13:13;24.20;99.90
57088;DHT22;42965;52.846;6.614;2023-07-29T09:15:40;24.20;99.90
57088;DHT22;42965;52.846;6.614;2023-07-29T09:18:13;24.30;99.90
57088;DHT22;42965;52.846;6.614;2023-07-29T09:20:40;24.50;99.90
57088;DHT22;42965;52.846;6.614;2023-07-29T09:23:09;24.60;99.90
57088;DHT22;42965;52.846;6.614;2023-07-29T09:25:39;24.70;99.90
57088;DHT22;42965;52.846;6.614;2023-07-29T09:28:13;24.40;99.90
57088;DHT22;42965;52.846;6.614;2023-07-29T09:30:41;24.20;99.90
57088;DHT22;42965;52.846;6.614;2023-07-29T09:33:11;24.20;99.90
57088;DHT22;42965;52.846;6.614;2023-07-29T09:35:38;24.20;99.90
57088;DHT22;42965;52.846;6.614;2023-07-29T09:38:14;24.10;99.90
57088;DHT22;42965;52.846;6.614;2023-07-29T09:40:42;23.80;99.90
57088;DHT22;42965;52.846;6.614;2023-07-29T09:43:11;23.70;99.90
57088;DHT22;42965;52.846;6.614;2023-07-29T09:45:37;24.10;99.90
57088;DHT22;42965;52.846;6.614;2023-07-29T09:48:04;24.50;99.90
57088;DHT22;42965;52.846;6.614;2023-07-29T09:50:35;25.10;99.90
57088;DHT22;42965;52.846;6.614;2023-07-29T09:53:02;25.60;99.90
57088;DHT22;42965;52.846;6.614;2023-07-29T09:55:32;25.60;99.90
57088;DHT22;42965;52.846;6.614;2023-07-29T09:58:00;25.10;99.90
57088;DHT22;42965;52.846;6.614;2023-07-29T10:00:30;24.40;99.90
57088;DHT22;42965;52.846;6.614;2023-07-29T10:02:58;24.10;99.90
57088;DHT22;42965;52.846;6.614;2023-07-29T10:05:28;24.00;99.90
57088;DHT22;42965;52.846;6.614;2023-07-29T10:07:56;24.00;99.90
57088;DHT22;42965;52.846;6.614;2023-07-29T10:10:23;24.20;99.90
57088;DHT22;42965;52.846;6.614;2023-07-29T10:12:50;24.00;99.90
57088;DHT22;42965;52.846;6.614;2023-07-29T10:15:17;23.80;99.90
57088;DHT22;42965;52.846;6.614;2023-07-29T10:17:45;23.80;99.90
57088;DHT22;42965;52.846;6.614;2023-07-29T10:20:12;23.50;99.90
57088;DHT22;42965;52.846;6.614;2023-07-29T10:22:41;23.20;99.90
57088;DHT22;42965;52.846;6.614;2023-07-29T10:25:12;23.00;99.90
57088;DHT22;42965;52.846;6.614;2023-07-29T10:27:49;22.90;99.90
57088;DHT22;42965;52.846;6.614;2023-07-29T10:30:18;22.90;99.90
57088;DHT22;42965;52.846;6.614;2023-07-29T10:32:45;23.00;99.90
57088;DHT22;42965;52.846;6.614;2023-07-29T10:35:15;23.20;99.90
57088;DHT22;42965;52.846;6.614;2023-07-29T10:37:42;23.20;99.90
57088;DHT22;42965;52.846;6.614;2023-07-29T10:40:10;23.30;99.90
57088;DHT22;42965;52.846;6.614;2023-07-29T10:42:38;23.30;99.90
57088;DHT22;42965;52.846;6.614;2023-07-29T10:45:25;23.40;99.90
57088;DHT22;42965;52.846;6.614;2023-07-29T10:47:51;23.20;99.90
57088;DHT22;42965;52.846;6.614;2023-07-29T10:50:20;23.50;99.90
57088;DHT22;42965;52.846;6.614;2023-07-29T10:52:52;23.90;99.90
57088;DHT22;42965;52.846;6.614;2023-07-29T10:55:26;23.90;99.90
57088;DHT22;42965;52.846;6.614;2023-07-29T10:58:07;23.60;99.90
57088;DHT22;42965;52.846;6.614;2023-07-29T11:00:34;23.30;99.90
57088;DHT22;42965;52.846;6.614;2023-07-29T11:03:06;23.10;99.90
57088;DHT22;42965;52.846;6.614;2023-07-29T11:11:07;22.60;99.90
57088;DHT22;42965;52.846;6.614;2023-07-29T11:13:35;22.30;99.90
57088;DHT22;42965;52.846;6.614;2023-07-29T11:16:02;22.20;99.90
57088;DHT22;42965;52.846;6.614;2023-07-29T11:18:31;22.20;99.90
57088;DHT22;42965;52.846;6.614;2023-07-29T11:20:58;22.40;99.90
57088;DHT22;42965;52.846;6.614;2023-07-29T11:23:35;22.90;99.90
57088;DHT22;42965;52.846;6.614;2023-07-29T11:26:04;23.10;99.90
57088;DHT22;42965;52.846;6.614;2023-07-29T11:28:30;23.50;99.90
57088;DHT22;42965;52.846;6.614;2023-07-29T11:30:57;23.80;99.90
57088;DHT22;42965;52.846;6.614;2023-07-29T11:33:25;24.30;99.90
57088;DHT22;42965;52.846;6.614;2023-07-29T11:35:54;24.40;99.90
57088;DHT22;42965;52.846;6.614;2023-07-29T11:38:22;24.10;99.90
57088;DHT22;42965;52.846;6.614;2023-07-29T11:41:01;23.60;99.90
57088;DHT22;42965;52.846;6.614;2023-07-29T11:43:35;23.10;99.90
57088;DHT22;42965;52.846;6.614;2023-07-29T11:46:03;22.80;99.90
57088;DHT22;42965;52.846;6.614;2023-07-29T11:48:32;22.40;99.90
57088;DHT22;42965;52.846;6.614;2023-07-29T11:50:58;22.40;99.90
57088;DHT22;42965;52.846;6.614;2023-07-29T11:53:29;22.60;99.90
57088;DHT22;42965;52.846;6.614;2023-07-29T11:55:57;22.70;99.90
57088;DHT22;42965;52.846;6.614;2023-07-29T11:58:23;23.00;99.90
57088;DHT22;42965;52.846;6.614;2023-07-29T12:00:51;23.10;99.90
57088;DHT22;42965;52.846;6.614;2023-07-29T12:03:17;23.10;99.90
57088;DHT22;42965;52.846;6.614;2023-07-29T12:05:44;23.90;99.90
57088;DHT22;42965;52.846;6.614;2023-07-29T12:08:11;24.50;99.90
57088;DHT22;42965;52.846;6.614;2023-07-29T12:10:37;24.80;99.90
57088;DHT22;42965;52.846;6.614;2023-07-29T12:13:04;25.20;99.90
57088;DHT22;42965;52.846;6.614;2023-07-29T12:15:30;25.40;99.90
57088;DHT22;42965;52.846;6.614;2023-07-29T12:17:59;25.80;99.90
57088;DHT22;42965;52.846;6.614;2023-07-29T12:20:26;25.70;99.90
57088;DHT22;42965;52.846;6.614;2023-07-29T12:22:57;25.40;99.90
57088;DHT22;42965;52.846;6.614;2023-07-29T12:25:26;25.80;99.90
57088;DHT22;42965;52.846;6.614;2023-07-29T12:27:52;25.70;99.90
57088;DHT22;42965;52.846;6.614;2023-07-29T12:30:22;25.70;99.90
57088;DHT22;42965;52.846;6.614;2023-07-29T12:32:49;25.40;99.90
57088;DHT22;42965;52.846;6.614;2023-07-29T12:35:15;25.00;99.90
57088;DHT22;42965;52.846;6.614;2023-07-29T12:37:42;25.10;99.90
57088;DHT22;42965;52.846;6.614;2023-07-29T12:40:23;25.50;99.90
57088;DHT22;42965;52.846;6.614;2023-07-29T12:42:50;25.90;99.90
57088;DHT22;42965;52.846;6.614;2023-07-29T12:45:18;26.40;99.90
57088;DHT22;42965;52.846;6.614;2023-07-29T12:47:45;26.60;99.90
57088;DHT22;42965;52.846;6.614;2023-07-29T12:50:11;26.50;99.90
57088;DHT22;42965;52.846;6.614;2023-07-29T12:52:37;25.80;99.90
57088;DHT22;42965;52.846;6.614;2023-07-29T12:55:05;25.80;99.90
57088;DHT22;42965;52.846;6.614;2023-07-29T12:57:31;25.60;99.90
57088;DHT22;42965;52.846;6.614;2023-07-29T12:59:58;25.40;99.90
57088;DHT22;42965;52.846;6.614;2023-07-29T13:02:24;25.30;99.90
57088;DHT22;42965;52.846;6.614;2023-07-29T13:04:50;24.90;99.90
57088;DHT22;42965;52.846;6.614;2023-07-29T13:07:16;24.60;99.90
57088;DHT22;42965;52.846;6.614;2023-07-29T13:09:42;24.60;99.90
57088;DHT22;42965;52.846;6.614;2023-07-29T13:12:09;24.40;99.90
57088;DHT22;42965;52.846;6.614;2023-07-29T13:14:35;24.90;99.90
57088;DHT22;42965;52.846;6.614;2023-07-29T13:17:01;25.90;99.90
57088;DHT22;42965;52.846;6.614;2023-07-29T13:19:27;26.50;99.90
57088;DHT22;42965;52.846;6.614;2023-07-29T13:21:54;26.70;99.90
57088;DHT22;42965;52.846;6.614;2023-07-29T13:24:20;26.10;99.90
57088;DHT22;42965;52.846;6.614;2023-07-29T13:26:46;25.40;99.90
57088;DHT22;42965;52.846;6.614;2023-07-29T13:29:12;24.80;99.90
57088;DHT22;42965;52.846;6.614;2023-07-29T13:31:38;24.40;99.90
57088;DHT22;42965;52.846;6.614;2023-07-29T13:34:05;23.90;99.90
57088;DHT22;42965;52.846;6.614;2023-07-29T13:36:31;23.50;99.90
57088;DHT22;42965;52.846;6.614;2023-07-29T13:38:57;23.10;99.90
57088;DHT22;42965;52.846;6.614;2023-07-29T13:41:24;22.90;99.90
57088;DHT22;42965;52.846;6.614;2023-07-29T13:43:50;22.40;99.90
57088;DHT22;42965;52.846;6.614;2023-07-29T13:46:17;22.00;99.90
57088;DHT22;42965;52.846;6.614;2023-07-29T13:48:47;21.80;99.90
57088;DHT22;42965;52.846;6.614;2023-07-29T13:51:13;21.80;99.90
57088;DHT22;42965;52.846;6.614;2023-07-29T13:53:39;21.60;99.90
57088;DHT22;42965;52.846;6.614;2023-07-29T13:56:06;21.50;99.90
57088;DHT22;42965;52.846;6.614;2023-07-29T13:58:32;21.40;99.90
57088;DHT22;42965;52.846;6.614;2023-07-29T14:00:59;21.30;99.90
57088;DHT22;42965;52.846;6.614;2023-07-29T14:03:25;21.30;99.90
57088;DHT22;42965;52.846;6.614;2023-07-29T14:05:51;21.40;99.90
57088;DHT22;42965;52.846;6.614;2023-07-29T14:08:18;21.30;99.90
57088;DHT22;42965;52.846;6.614;2023-07-29T14:10:44;21.30;99.90
57088;DHT22;42965;52.846;6.614;2023-07-29T14:13:11;21.20;99.90
57088;DHT22;42965;52.846;6.614;2023-07-29T14:15:37;21.40;99.90
57088;DHT22;42965;52.846;6.614;2023-07-29T14:18:03;21.40;99.90
57088;DHT22;42965;52.846;6.614;2023-07-29T14:20:30;21.30;99.90
57088;DHT22;42965;52.846;6.614;2023-07-29T14:22:56;21.20;99.90
57088;DHT22;42965;52.846;6.614;2023-07-29T14:25:22;21.20;99.90
57088;DHT22;42965;52.846;6.614;2023-07-29T14:27:48;21.00;99.90
57088;DHT22;42965;52.846;6.614;2023-07-29T14:30:15;20.90;99.90
57088;DHT22;42965;52.846;6.614;2023-07-29T14:32:41;20.90;99.90
57088;DHT22;42965;52.846;6.614;2023-07-29T14:35:08;21.00;99.90
57088;DHT22;42965;52.846;6.614;2023-07-29T14:37:34;21.10;99.90
57088;DHT22;42965;52.846;6.614;2023-07-29T14:40:01;21.10;99.90
57088;DHT22;42965;52.846;6.614;2023-07-29T14:42:28;21.10;99.90
57088;DHT22;42965;52.846;6.614;2023-07-29T14:44:55;21.10;99.90
57088;DHT22;42965;52.846;6.614;2023-07-29T14:47:22;21.20;99.90
57088;DHT22;42965;52.846;6.614;2023-07-29T14:49:49;21.20;99.90
57088;DHT22;42965;52.846;6.614;2023-07-29T14:52:15;21.30;99.90
57088;DHT22;42965;52.846;6.614;2023-07-29T14:54:41;21.50;99.90
57088;DHT22;42965;52.846;6.614;2023-07-29T14:57:09;21.60;99.90
57088;DHT22;42965;52.846;6.614;2023-07-29T14:59:35;22.30;99.90
57088;DHT22;42965;52.846;6.614;2023-07-29T15:02:01;23.10;99.90
57088;DHT22;42965;52.846;6.614;2023-07-29T15:04:28;23.80;99.90
57088;DHT22;42965;52.846;6.614;2023-07-29T15:06:54;24.00;99.90
57088;DHT22;42965;52.846;6.614;2023-07-29T15:09:20;24.40;99.90
57088;DHT22;42965;52.846;6.614;2023-07-29T15:11:46;24.10;99.90
57088;DHT22;42965;52.846;6.614;2023-07-29T15:14:13;24.20;99.90
57088;DHT22;42965;52.846;6.614;2023-07-29T15:16:39;24.10;99.90
57088;DHT22;42965;52.846;6.614;2023-07-29T15:19:05;24.00;99.90
57088;DHT22;42965;52.846;6.614;2023-07-29T15:21:32;23.80;99.90
57088;DHT22;42965;52.846;6.614;2023-07-29T15:24:01;23.60;99.90
57088;DHT22;42965;52.846;6.614;2023-07-29T15:26:27;23.40;99.90
57088;DHT22;42965;52.846;6.614;2023-07-29T15:28:54;23.60;99.90
57088;DHT22;42965;52.846;6.614;2023-07-29T15:31:20;23.80;99.90
57088;DHT22;42965;52.846;6.614;2023-07-29T15:33:46;24.00;99.90
57088;DHT22;42965;52.846;6.614;2023-07-29T15:36:13;24.00;99.90
57088;DHT22;42965;52.846;6.614;2023-07-29T15:38:39;24.20;99.90
57088;DHT22;42965;52.846;6.614;2023-07-29T15:41:05;24.10;99.90